createdAt,value
2019-04-29T00:01:13.634Z,5.08
2019-04-29T00:06:19.090Z,5.08
2019-04-29T00:11:23.372Z,5.00
2019-04-29T00:16:47.421Z,4.97
2019-04-29T00:21:51.400Z,4.47
2019-04-29T00:26:55.321Z,5.15
2019-04-29T00:31:59.608Z,5.22
2019-04-29T00:37:14.582Z,5.22
2019-04-29T00:42:25.935Z,5.00
2019-04-29T00:47:29.857Z,5.03
2019-04-29T00:52:33.937Z,5.75
2019-04-29T00:57:38.068Z,5.40
2019-04-29T01:02:42.197Z,5.22
2019-04-29T01:07:46.161Z,5.20
2019-04-29T01:12:50.243Z,5.70
2019-04-29T01:17:54.374Z,6.28
2019-04-29T01:22:58.405Z,6.65
2019-04-29T01:28:20.357Z,7.37
2019-04-29T01:33:24.373Z,7.87
2019-04-29T01:38:28.508Z,8.13
2019-04-29T01:43:50.558Z,8.20
2019-04-29T01:48:54.583Z,8.48
2019-04-29T01:53:58.813Z,9.33
2019-04-29T01:59:02.839Z,8.28
2019-04-29T02:04:06.981Z,9.83
2019-04-29T02:09:12.420Z,9.95
2019-04-29T02:14:16.451Z,10.75
2019-04-29T02:19:20.579Z,10.63
2019-04-29T02:24:24.550Z,10.95
2019-04-29T02:29:28.636Z,11.43
2019-04-29T02:34:32.795Z,11.25
2019-04-29T02:39:44.057Z,11.53
2019-04-29T02:44:48.318Z,10.95
2019-04-29T02:49:52.312Z,10.48
2019-04-29T02:54:57.987Z,11.20
2019-04-29T03:00:06.972Z,12.80
2019-04-29T03:05:12.798Z,12.13
2019-04-29T03:10:17.063Z,12.05
2019-04-29T03:15:24.023Z,12.37
2019-04-29T03:20:32.967Z,12.15
2019-04-29T03:25:36.991Z,12.58
2019-04-29T03:30:41.016Z,13.25
2019-04-29T03:35:45.056Z,12.88
2019-04-29T03:40:49.172Z,13.20
2019-04-29T03:45:53.319Z,13.25
2019-04-29T03:50:57.179Z,13.43
2019-04-29T03:56:01.472Z,13.28
2019-04-29T04:01:09.831Z,13.95
2019-04-29T04:06:15.447Z,14.68
2019-04-29T04:11:19.576Z,15.03
2019-04-29T04:16:25.140Z,13.65
2019-04-29T04:21:29.209Z,16.55
2019-04-29T04:26:33.289Z,17.80
2019-04-29T04:31:37.321Z,18.15
2019-04-29T04:36:41.350Z,18.32
2019-04-29T04:41:45.268Z,21.57
2019-04-29T04:46:49.192Z,19.62
2019-04-29T04:51:53.219Z,20.15
2019-04-29T04:56:57.248Z,20.10
2019-04-29T05:02:01.280Z,22.22
2019-04-29T05:07:05.507Z,22.77
2019-04-29T05:12:09.372Z,18.75
2019-04-29T05:17:13.459Z,17.70
2019-04-29T05:22:17.492Z,17.27
2019-04-29T05:27:21.517Z,17.57
2019-04-29T05:32:25.483Z,15.50
2019-04-29T05:37:31.199Z,15.30
2019-04-29T05:42:35.224Z,15.00
2019-04-29T05:47:43.954Z,13.75
2019-04-29T05:53:05.495Z,14.78
2019-04-29T05:58:12.387Z,13.60
2019-04-29T06:03:18.976Z,14.25
2019-04-29T06:08:23.008Z,13.68
2019-04-29T06:13:27.856Z,14.70
2019-04-29T06:18:31.832Z,14.33
2019-04-29T06:23:35.907Z,14.18
2019-04-29T06:28:40.026Z,13.98
2019-04-29T06:33:44.056Z,13.20
2019-04-29T06:38:48.286Z,12.85
2019-04-29T06:43:55.701Z,13.10
2019-04-29T06:49:09.629Z,13.08
2019-04-29T06:54:04.976Z,12.95
2019-04-29T06:59:12.266Z,13.58
2019-04-29T07:04:14.466Z,12.98
2019-04-29T07:09:18.357Z,13.05
2019-04-29T07:14:23.542Z,14.10
2019-04-29T07:19:28.305Z,13.85
2019-04-29T07:24:32.416Z,14.15
2019-04-29T07:29:38.061Z,13.60
2019-04-29T07:34:42.212Z,18.42
2019-04-29T07:39:46.336Z,21.00
2019-04-29T07:45:08.289Z,18.92
2019-04-29T07:50:12.563Z,17.52
2019-04-29T07:55:16.548Z,16.55
2019-04-29T08:00:34.546Z,15.60
2019-04-29T08:05:38.630Z,16.12
2019-04-29T08:10:54.065Z,16.77
2019-04-29T08:15:48.319Z,16.45
2019-04-29T08:20:52.193Z,15.20
2019-04-29T08:25:57.439Z,16.12
2019-04-29T08:31:01.841Z,16.02
2019-04-29T08:36:05.855Z,16.60
2019-04-29T08:41:09.990Z,17.60
2019-04-29T08:46:21.535Z,16.57
2019-04-29T08:51:25.722Z,17.23
2019-04-29T08:56:29.737Z,18.05
2019-04-29T09:01:35.541Z,16.48
2019-04-29T09:06:39.538Z,18.17
2019-04-29T09:11:47.525Z,16.20
2019-04-29T09:16:49.236Z,18.05
2019-04-29T09:22:00.633Z,17.00
2019-04-29T09:27:09.612Z,27.25
2019-04-29T09:32:14.830Z,24.25
2019-04-29T09:37:22.935Z,24.50
2019-04-29T09:42:26.156Z,27.10
2019-04-29T09:47:31.105Z,27.80
2019-04-29T09:52:35.135Z,28.73
2019-04-29T09:57:39.165Z,28.90
2019-04-29T10:02:50.865Z,28.83
2019-04-29T10:07:55.576Z,28.17
2019-04-29T10:12:59.640Z,27.82
2019-04-29T10:18:11.145Z,25.85
2019-04-29T10:23:15.163Z,23.67
2019-04-29T10:28:19.032Z,23.25
2019-04-29T10:33:23.932Z,23.75
2019-04-29T10:38:27.966Z,21.85
2019-04-29T10:43:36.156Z,27.70
2019-04-29T10:48:50.406Z,27.15
2019-04-29T10:53:54.789Z,25.55
2019-04-29T10:58:58.821Z,25.68
2019-04-29T11:04:03.248Z,26.25
2019-04-29T11:09:14.397Z,24.27
2019-04-29T11:14:19.706Z,23.90
2019-04-29T11:19:24.238Z,23.60
2019-04-29T11:24:32.351Z,23.90
2019-04-29T11:29:35.955Z,25.10
2019-04-29T11:34:53.511Z,23.20
2019-04-29T11:39:57.222Z,22.73
2019-04-29T11:45:02.621Z,22.40
2019-04-29T11:50:13.690Z,20.72
2019-04-29T11:55:18.572Z,19.75
2019-04-29T12:00:41.815Z,18.50
2019-04-29T12:05:47.410Z,17.55
2019-04-29T12:11:06.048Z,16.50
2019-04-29T12:16:04.693Z,16.37
2019-04-29T12:21:26.460Z,18.20
2019-04-29T12:26:35.645Z,15.50
2019-04-29T12:31:38.864Z,16.00
2019-04-29T12:36:54.737Z,16.35
2019-04-29T12:41:50.288Z,17.07
2019-04-29T12:46:58.624Z,14.28
2019-04-29T12:52:03.251Z,14.50
2019-04-29T12:57:07.291Z,14.55
2019-04-29T13:02:19.979Z,14.98
2019-04-29T13:07:25.664Z,13.78
2019-04-29T13:12:30.406Z,13.18
2019-04-29T13:17:41.922Z,12.82
2019-04-29T13:22:45.950Z,13.18
2019-04-29T13:27:50.071Z,12.98
2019-04-29T13:32:54.102Z,12.33
2019-04-29T13:37:58.330Z,14.75
2019-04-29T13:43:02.363Z,13.62
2019-04-29T13:48:10.567Z,13.32
2019-04-29T13:53:16.627Z,13.20
2019-04-29T13:58:22.101Z,13.15
2019-04-29T14:03:47.094Z,13.10
2019-04-29T14:08:50.148Z,12.70
2019-04-29T14:13:54.169Z,12.00
2019-04-29T14:18:58.198Z,10.80
2019-04-29T14:24:02.222Z,10.88
2019-04-29T14:29:06.244Z,11.57
2019-04-29T14:34:23.684Z,11.63
2019-04-29T14:39:36.616Z,11.63
2019-04-29T14:44:41.072Z,12.10
2019-04-29T14:49:54.917Z,11.70
2019-04-29T14:54:58.119Z,12.35
2019-04-29T15:00:02.343Z,11.53
2019-04-29T15:05:12.204Z,12.75
2019-04-29T15:10:14.817Z,11.88
2019-04-29T15:15:38.498Z,12.50
2019-04-29T15:20:44.062Z,13.13
2019-04-29T15:25:48.085Z,13.05
2019-04-29T15:30:52.111Z,12.25
2019-04-29T15:35:59.782Z,12.30
2019-04-29T15:41:05.138Z,11.30
2019-04-29T15:46:11.338Z,11.03
2019-04-29T15:51:13.969Z,12.75
2019-04-29T15:56:28.204Z,15.65
2019-04-29T16:01:28.297Z,26.82
2019-04-29T16:06:40.165Z,20.48
2019-04-29T16:11:49.713Z,16.80
2019-04-29T16:16:53.740Z,15.38
2019-04-29T16:21:57.878Z,15.08
2019-04-29T16:27:08.647Z,14.95
2019-04-29T16:32:09.098Z,15.58
2019-04-29T16:37:18.989Z,15.58
2019-04-29T16:42:26.278Z,15.28
2019-04-29T16:47:30.395Z,15.30
2019-04-29T16:52:34.516Z,14.98
2019-04-29T16:57:38.552Z,15.32
2019-04-29T17:02:42.574Z,13.13
2019-04-29T17:07:47.223Z,15.08
2019-04-29T17:12:52.063Z,14.20
2019-04-29T17:17:56.090Z,15.32
2019-04-29T17:23:00.115Z,14.55
2019-04-29T17:28:11.578Z,13.45
2019-04-29T17:33:27.251Z,15.85
2019-04-29T17:38:24.782Z,13.43
2019-04-29T17:43:46.941Z,13.15
2019-04-29T17:48:55.471Z,12.45
2019-04-29T17:54:01.040Z,14.23
2019-04-29T17:59:09.368Z,17.20
2019-04-29T18:04:16.679Z,15.85
2019-04-29T18:09:38.404Z,16.35
2019-04-29T18:14:42.536Z,13.93
2019-04-29T18:20:08.499Z,13.60
2019-04-29T18:25:30.755Z,12.45
2019-04-29T18:30:35.890Z,11.50
2019-04-29T18:35:35.786Z,10.80
2019-04-29T18:40:42.106Z,10.88
2019-04-29T18:45:55.871Z,11.12
2019-04-29T18:50:51.076Z,10.85
2019-04-29T18:55:55.189Z,10.13
2019-04-29T19:00:59.269Z,9.48
2019-04-29T19:06:10.064Z,8.85
2019-04-29T19:11:10.758Z,9.23
2019-04-29T19:16:21.580Z,9.65
2019-04-29T19:21:23.652Z,7.95
2019-04-29T19:26:27.445Z,8.13
2019-04-29T19:31:36.942Z,8.45
2019-04-29T19:36:38.331Z,8.28
2019-04-29T19:41:42.468Z,8.70
